createdAt,value
2022-10-08T00:01:15.219Z,21.15
2022-10-08T00:03:48.034Z,22.48
2022-10-08T00:06:20.145Z,25.02
2022-10-08T00:08:55.611Z,24.33
2022-10-08T00:11:25.462Z,24.92
2022-10-08T00:13:53.349Z,24.50
2022-10-08T00:16:25.614Z,23.83
2022-10-08T00:18:55.684Z,23.15
2022-10-08T00:21:32.444Z,21.55
2022-10-08T00:24:01.554Z,21.00
2022-10-08T00:26:31.247Z,21.85
2022-10-08T00:29:01.694Z,23.92
2022-10-08T00:31:34.345Z,23.63
2022-10-08T00:34:05.879Z,23.48
2022-10-08T00:36:34.961Z,23.85
2022-10-08T00:39:05.601Z,24.30
2022-10-08T00:41:34.693Z,24.58
2022-10-08T00:44:05.678Z,23.60
2022-10-08T00:46:48.772Z,24.80
2022-10-08T00:49:20.172Z,23.92
2022-10-08T00:51:56.517Z,23.42
2022-10-08T00:54:23.831Z,22.92
2022-10-08T00:56:54.364Z,23.10
2022-10-08T00:59:21.617Z,24.40
2022-10-08T01:01:48.501Z,25.00
2022-10-08T01:04:16.120Z,25.52
2022-10-08T01:06:45.653Z,24.98
2022-10-08T01:09:19.404Z,27.35
2022-10-08T01:12:06.123Z,27.35
2022-10-08T01:14:45.300Z,26.92
2022-10-08T01:17:12.138Z,27.17
2022-10-08T01:20:10.933Z,27.73
2022-10-08T01:23:02.491Z,26.58
2022-10-08T01:25:53.351Z,28.60
2022-10-08T01:28:23.159Z,27.30
2022-10-08T01:31:19.159Z,27.95
2022-10-08T01:33:52.936Z,26.77
2022-10-08T01:36:21.615Z,27.70
2022-10-08T01:38:56.172Z,27.67
2022-10-08T01:41:26.193Z,28.27
2022-10-08T01:44:10.623Z,29.70
2022-10-08T01:46:41.123Z,26.98
2022-10-08T01:49:13.204Z,29.15
2022-10-08T01:51:47.189Z,30.25
2022-10-08T01:54:16.560Z,27.75
2022-10-08T01:56:46.166Z,28.58
2022-10-08T01:59:23.124Z,27.70
2022-10-08T02:01:58.795Z,27.02
2022-10-08T02:04:34.885Z,24.98
2022-10-08T02:07:18.307Z,26.40
2022-10-08T02:10:12.387Z,28.20
2022-10-08T02:12:40.564Z,28.20
2022-10-08T02:15:25.768Z,27.27
2022-10-08T02:18:14.905Z,26.80
2022-10-08T02:20:41.680Z,27.60
2022-10-08T02:23:17.441Z,28.17
2022-10-08T02:25:53.935Z,25.73
2022-10-08T02:28:32.068Z,28.02
2022-10-08T02:31:36.491Z,29.58
2022-10-08T02:34:14.456Z,29.35
2022-10-08T02:36:47.022Z,28.17
2022-10-08T02:39:16.652Z,27.30
2022-10-08T02:41:53.174Z,25.95
2022-10-08T02:44:48.131Z,26.58
2022-10-08T02:47:19.795Z,26.45
2022-10-08T02:49:54.864Z,29.02
2022-10-08T02:52:24.745Z,28.35
2022-10-08T02:54:53.199Z,29.17
2022-10-08T02:57:27.699Z,31.15
2022-10-08T02:59:55.296Z,28.05
2022-10-08T03:02:37.922Z,25.95
2022-10-08T03:05:08.889Z,24.90
2022-10-08T03:07:35.734Z,27.33
2022-10-08T03:10:07.542Z,24.30
2022-10-08T03:15:01.758Z,27.02
2022-10-08T03:17:34.683Z,29.05
2022-10-08T03:20:03.266Z,30.20
2022-10-08T03:22:31.720Z,29.70
2022-10-08T03:24:58.811Z,27.92
2022-10-08T03:27:25.659Z,29.70
2022-10-08T03:29:57.135Z,30.25
2022-10-08T03:32:25.134Z,26.75
2022-10-08T03:34:52.335Z,28.73
2022-10-08T03:37:20.060Z,31.30
2022-10-08T03:39:47.031Z,31.30
2022-10-08T03:42:14.001Z,32.70
2022-10-08T03:44:40.748Z,32.72
2022-10-08T03:47:07.514Z,33.53
2022-10-08T03:49:34.293Z,32.38
2022-10-08T03:52:01.365Z,32.13
2022-10-08T03:54:28.818Z,31.50
2022-10-08T03:56:55.562Z,29.85
2022-10-08T03:59:22.471Z,29.92
2022-10-08T04:01:49.391Z,27.85
2022-10-08T04:04:16.266Z,30.67
2022-10-08T04:06:43.034Z,31.42
2022-10-08T04:09:10.827Z,30.20
2022-10-08T04:11:37.699Z,31.65
2022-10-08T04:14:04.692Z,29.90
2022-10-08T04:16:31.436Z,30.25
2022-10-08T04:18:58.220Z,30.02
2022-10-08T04:21:25.054Z,28.63
2022-10-08T04:23:52.122Z,26.92
2022-10-08T04:26:19.136Z,28.38
2022-10-08T04:28:46.324Z,28.00
2022-10-08T04:31:22.043Z,29.70
2022-10-08T04:33:49.337Z,28.60
2022-10-08T04:36:18.721Z,29.05
2022-10-08T04:38:46.269Z,28.35
2022-10-08T04:41:16.623Z,28.77
2022-10-08T04:43:44.762Z,27.10
2022-10-08T04:46:14.562Z,25.58
2022-10-08T04:48:47.841Z,27.70
2022-10-08T04:51:15.566Z,28.08
2022-10-08T04:53:43.029Z,26.45
2022-10-08T04:56:14.910Z,25.55
2022-10-08T05:01:11.365Z,27.63
2022-10-08T05:03:40.350Z,29.60
2022-10-08T05:06:07.897Z,30.55
2022-10-08T05:08:35.515Z,30.90
2022-10-08T05:11:02.700Z,27.15
2022-10-08T05:13:29.728Z,28.35
2022-10-08T05:15:56.644Z,28.50
2022-10-08T05:18:23.457Z,27.50
2022-10-08T05:20:50.279Z,59.20
2022-10-08T05:23:17.162Z,37.88
2022-10-08T05:25:44.073Z,30.65
2022-10-08T05:28:10.873Z,27.73
2022-10-08T05:30:37.793Z,27.30
2022-10-08T05:33:04.752Z,27.30
2022-10-08T05:35:31.521Z,26.52
2022-10-08T05:37:58.312Z,27.50
2022-10-08T05:40:25.179Z,28.05
2022-10-08T05:42:52.810Z,28.00
2022-10-08T05:45:19.659Z,30.58
2022-10-08T05:47:48.472Z,26.02
2022-10-08T05:50:16.040Z,28.83
2022-10-08T05:52:47.556Z,26.65
2022-10-08T05:55:14.663Z,26.60
2022-10-08T05:57:41.533Z,25.88
2022-10-08T06:00:08.980Z,28.38
2022-10-08T06:02:35.863Z,29.40
2022-10-08T06:05:02.753Z,27.00
2022-10-08T06:07:29.590Z,30.25
2022-10-08T06:09:56.368Z,31.70
2022-10-08T06:12:23.174Z,36.58
2022-10-08T06:14:49.948Z,36.67
2022-10-08T06:17:16.716Z,41.55
2022-10-08T06:19:43.467Z,42.40
2022-10-08T06:22:10.236Z,50.75
2022-10-08T06:24:36.995Z,47.47
2022-10-08T06:27:03.761Z,39.47
2022-10-08T06:29:30.579Z,43.70
2022-10-08T06:31:57.415Z,41.53
2022-10-08T06:34:24.498Z,40.85
2022-10-08T06:36:51.385Z,40.20
2022-10-08T06:39:18.530Z,35.47
2022-10-08T06:41:45.499Z,34.75
2022-10-08T06:44:14.153Z,33.20
2022-10-08T06:46:41.853Z,30.60
2022-10-08T06:49:11.008Z,33.20
2022-10-08T06:51:38.020Z,30.42
2022-10-08T06:54:07.750Z,30.75
2022-10-08T06:56:36.614Z,42.78
2022-10-08T06:59:04.951Z,40.05
2022-10-08T07:01:33.892Z,61.67
2022-10-08T07:04:01.907Z,63.45
2022-10-08T07:06:29.010Z,34.80
2022-10-08T07:09:00.601Z,35.95
2022-10-08T07:11:28.936Z,34.03
2022-10-08T07:13:59.795Z,34.03
2022-10-08T07:16:28.540Z,33.38
2022-10-08T07:19:19.604Z,35.65
2022-10-08T07:21:46.392Z,36.97
2022-10-08T07:24:13.174Z,37.50
2022-10-08T07:26:40.020Z,35.30
2022-10-08T07:29:11.976Z,31.95
2022-10-08T07:31:39.827Z,31.60
2022-10-08T07:34:10.542Z,30.63
2022-10-08T07:36:38.394Z,30.33
2022-10-08T07:39:08.550Z,31.42
2022-10-08T07:41:35.742Z,31.50
2022-10-08T07:44:03.694Z,31.77
2022-10-08T07:46:35.391Z,33.17
2022-10-08T07:49:03.815Z,32.58
2022-10-08T07:51:33.295Z,32.83
2022-10-08T07:54:02.847Z,33.40
2022-10-08T07:56:30.726Z,33.90
2022-10-08T07:58:59.082Z,29.98
2022-10-08T08:01:28.617Z,30.00
2022-10-08T08:04:02.433Z,28.48
2022-10-08T08:06:30.696Z,28.63
2022-10-08T08:08:59.226Z,27.83
2022-10-08T08:11:26.136Z,28.40
2022-10-08T08:13:53.756Z,28.08
2022-10-08T08:16:25.984Z,26.90
2022-10-08T08:18:56.347Z,27.38
2022-10-08T08:21:31.773Z,22.95
2022-10-08T08:24:02.573Z,22.45
2022-10-08T08:26:32.972Z,21.77
2022-10-08T08:29:02.728Z,21.05
2022-10-08T08:31:31.995Z,19.55
2022-10-08T08:34:05.574Z,18.42
2022-10-08T08:36:35.184Z,18.50
2022-10-08T08:39:02.424Z,18.10
2022-10-08T08:41:46.566Z,16.85
2022-10-08T08:44:23.711Z,16.88
2022-10-08T08:47:05.174Z,14.55
2022-10-08T08:49:45.429Z,15.93
2022-10-08T08:52:38.681Z,15.20
2022-10-08T08:55:15.876Z,14.48
2022-10-08T08:58:16.779Z,15.00
2022-10-08T09:00:47.430Z,13.02
2022-10-08T09:03:20.192Z,15.02
2022-10-08T09:05:51.126Z,13.27
2022-10-08T09:08:23.511Z,13.50
2022-10-08T09:10:57.435Z,13.82
2022-10-08T09:13:57.582Z,13.30
2022-10-08T09:16:27.948Z,13.48
2022-10-08T09:18:54.830Z,12.57
2022-10-08T09:21:23.482Z,12.20
2022-10-08T09:23:50.236Z,11.60
2022-10-08T09:26:23.900Z,13.05
2022-10-08T09:28:53.729Z,12.43
2022-10-08T09:31:38.563Z,12.13
2022-10-08T09:34:13.164Z,12.48
2022-10-08T09:36:52.508Z,11.95
2022-10-08T09:39:27.498Z,11.68
2022-10-08T09:42:14.076Z,12.02
2022-10-08T09:44:43.825Z,10.05
2022-10-08T09:47:22.886Z,11.70
2022-10-08T09:50:19.054Z,12.35
2022-10-08T09:52:48.400Z,11.45
2022-10-08T09:55:31.960Z,12.52
2022-10-08T09:58:00.596Z,12.13
2022-10-08T10:00:32.983Z,12.45
2022-10-08T10:03:01.500Z,10.88
2022-10-08T10:05:34.877Z,11.25
2022-10-08T10:08:02.345Z,11.77
2022-10-08T10:10:48.677Z,10.48
2022-10-08T10:13:23.634Z,10.88
2022-10-08T10:15:53.295Z,11.50
2022-10-08T10:18:25.956Z,11.38
2022-10-08T10:21:01.495Z,10.63
2022-10-08T10:23:35.664Z,10.38
2022-10-08T10:26:06.722Z,10.52
2022-10-08T10:28:44.926Z,10.50
2022-10-08T10:31:33.184Z,9.75
2022-10-08T10:34:02.815Z,10.25
2022-10-08T10:36:38.639Z,10.50
2022-10-08T10:39:41.306Z,11.27
2022-10-08T10:42:29.349Z,10.45
2022-10-08T10:45:02.916Z,10.80
2022-10-08T10:47:32.444Z,16.63
2022-10-08T10:50:01.919Z,9.48
2022-10-08T10:52:40.687Z,9.45
2022-10-08T10:55:29.555Z,8.70
2022-10-08T10:58:20.717Z,8.93
2022-10-08T11:00:57.992Z,8.50
2022-10-08T11:03:34.836Z,9.65
2022-10-08T11:06:23.508Z,8.68
2022-10-08T11:09:03.396Z,9.07
2022-10-08T11:12:23.036Z,8.23
2022-10-08T11:15:20.792Z,9.85
2022-10-08T11:18:03.045Z,8.43
2022-10-08T11:20:53.411Z,7.90
2022-10-08T11:23:42.214Z,7.65
2022-10-08T11:26:27.867Z,7.85
2022-10-08T11:29:07.062Z,8.35
2022-10-08T11:31:45.362Z,8.90
2022-10-08T11:34:35.722Z,8.10
2022-10-08T11:37:28.440Z,8.60
2022-10-08T11:40:01.288Z,6.88
2022-10-08T11:42:48.302Z,7.32
2022-10-08T11:45:25.843Z,7.25
2022-10-08T11:47:54.767Z,7.35
2022-10-08T11:50:31.260Z,6.22
2022-10-08T11:53:15.655Z,6.15
2022-10-08T11:55:55.312Z,5.63
2022-10-08T11:58:28.576Z,6.07
2022-10-08T12:01:10.572Z,6.07
2022-10-08T12:03:40.835Z,5.55
2022-10-08T12:06:24.531Z,7.22
2022-10-08T12:08:58.256Z,6.43
2022-10-08T12:11:40.072Z,5.97
2022-10-08T12:16:49.092Z,6.88
2022-10-08T12:19:38.804Z,6.95
2022-10-08T12:22:14.463Z,7.45
2022-10-08T12:24:43.800Z,6.88
2022-10-08T12:27:48.732Z,7.80
2022-10-08T12:30:19.219Z,6.93
2022-10-08T12:32:46.794Z,7.03
2022-10-08T12:35:25.942Z,7.13
2022-10-08T12:38:08.036Z,6.82
2022-10-08T12:40:48.314Z,7.35
2022-10-08T12:43:38.864Z,7.57
2022-10-08T12:46:24.294Z,7.15
2022-10-08T12:48:58.265Z,7.90
2022-10-08T12:51:41.984Z,6.80
2022-10-08T12:54:20.929Z,7.28
2022-10-08T12:56:48.425Z,7.95
2022-10-08T12:59:17.289Z,7.28
2022-10-08T13:01:45.353Z,6.70
2022-10-08T13:04:22.511Z,6.75
2022-10-08T13:06:51.763Z,7.47
2022-10-08T13:09:29.817Z,7.40
2022-10-08T13:12:03.432Z,6.53
2022-10-08T13:14:40.568Z,7.40
2022-10-08T13:17:28.137Z,6.68
2022-10-08T13:20:10.706Z,7.05
2022-10-08T13:22:38.245Z,7.25
2022-10-08T13:25:06.219Z,7.85
2022-10-08T13:27:34.631Z,47.35
2022-10-08T13:30:28.774Z,8.82
2022-10-08T13:33:04.340Z,7.60
2022-10-08T13:35:33.631Z,7.60
2022-10-08T13:38:02.807Z,8.00
2022-10-08T13:40:30.207Z,7.40
2022-10-08T13:42:58.905Z,8.98
2022-10-08T13:45:38.554Z,8.38
2022-10-08T13:48:12.913Z,7.75
2022-10-08T13:50:50.976Z,8.25
2022-10-08T13:53:22.145Z,7.25
2022-10-08T13:55:50.313Z,7.90
2022-10-08T13:58:19.169Z,8.02
2022-10-08T14:00:47.715Z,8.60
2022-10-08T14:03:14.945Z,7.78
2022-10-08T14:05:47.018Z,7.70
2022-10-08T14:08:23.330Z,7.82
2022-10-08T14:10:53.169Z,7.40
2022-10-08T14:13:19.930Z,8.73
2022-10-08T14:15:46.673Z,8.25
2022-10-08T14:18:13.550Z,8.85
2022-10-08T14:20:40.654Z,7.88
2022-10-08T14:23:07.657Z,8.32
2022-10-08T14:25:34.419Z,9.02
2022-10-08T14:28:01.555Z,7.78
2022-10-08T14:30:28.912Z,8.45
2022-10-08T14:32:55.848Z,8.50
2022-10-08T14:35:22.740Z,8.25
2022-10-08T14:37:50.290Z,8.52
2022-10-08T14:40:20.321Z,8.95
2022-10-08T14:42:47.745Z,8.68
2022-10-08T14:45:14.806Z,8.95
2022-10-08T14:47:42.296Z,8.77
2022-10-08T14:50:09.963Z,9.00
2022-10-08T14:52:41.761Z,8.70
2022-10-08T14:55:11.076Z,8.90
2022-10-08T14:57:37.853Z,8.68
2022-10-08T15:00:05.504Z,9.20
2022-10-08T15:02:34.253Z,10.07
2022-10-08T15:05:01.735Z,8.80
2022-10-08T15:07:28.888Z,8.88
2022-10-08T15:09:55.665Z,8.60
2022-10-08T15:12:22.491Z,8.02
2022-10-08T15:14:49.360Z,104.00
2022-10-08T15:17:16.240Z,11.30
2022-10-08T15:19:43.061Z,9.75
2022-10-08T15:22:09.859Z,9.82
2022-10-08T15:24:36.647Z,10.52
2022-10-08T15:27:03.636Z,11.45
2022-10-08T15:29:30.609Z,10.50
2022-10-08T15:31:57.566Z,8.63
2022-10-08T15:34:24.520Z,8.85
2022-10-08T15:36:55.438Z,10.35
2022-10-08T15:39:22.927Z,8.57
2022-10-08T15:41:52.698Z,9.43
2022-10-08T15:44:31.035Z,8.75
2022-10-08T15:46:59.640Z,8.32
2022-10-08T15:49:31.239Z,7.55
2022-10-08T15:51:58.192Z,8.23
2022-10-08T15:54:25.020Z,8.30
2022-10-08T15:56:51.800Z,9.40
2022-10-08T15:59:18.758Z,8.65
2022-10-08T16:01:45.524Z,7.70
2022-10-08T16:04:13.781Z,7.45
2022-10-08T16:06:45.443Z,8.93
2022-10-08T16:11:39.736Z,7.47
2022-10-08T16:14:10.270Z,9.35
2022-10-08T16:16:38.455Z,10.30
2022-10-08T16:19:08.059Z,9.60
2022-10-08T16:21:35.428Z,8.57
2022-10-08T16:24:02.381Z,8.70
2022-10-08T16:26:31.856Z,8.73
2022-10-08T16:29:01.636Z,8.88
2022-10-08T16:31:30.618Z,8.82
2022-10-08T16:34:18.749Z,10.23
2022-10-08T16:36:48.785Z,9.50
2022-10-08T16:39:18.279Z,9.82
2022-10-08T16:41:52.487Z,8.98
2022-10-08T16:44:21.075Z,10.40
2022-10-08T16:46:51.015Z,10.73
2022-10-08T16:49:25.453Z,11.57
2022-10-08T16:51:55.092Z,11.20
2022-10-08T16:54:22.348Z,10.10
2022-10-08T16:56:49.512Z,10.63
2022-10-08T16:59:19.454Z,9.52
2022-10-08T17:01:48.928Z,10.38
2022-10-08T17:04:17.722Z,10.35
2022-10-08T17:06:45.233Z,10.35
2022-10-08T17:09:12.170Z,10.15
2022-10-08T17:11:39.170Z,10.80
2022-10-08T17:14:07.785Z,10.27
2022-10-08T17:16:36.009Z,10.88
2022-10-08T17:19:03.683Z,11.20
2022-10-08T17:21:31.531Z,10.85
2022-10-08T17:23:58.975Z,10.48
2022-10-08T17:26:27.666Z,9.90
2022-10-08T17:28:55.030Z,10.68
2022-10-08T17:31:29.028Z,9.73
2022-10-08T17:33:55.831Z,10.90
2022-10-08T17:36:26.392Z,10.82
2022-10-08T17:38:55.822Z,10.70
2022-10-08T17:41:25.303Z,11.40
2022-10-08T17:43:53.442Z,11.05
2022-10-08T17:46:23.139Z,10.30
2022-10-08T17:48:50.488Z,10.93
2022-10-08T17:51:23.203Z,10.88
2022-10-08T17:53:58.306Z,10.88
2022-10-08T17:56:25.808Z,11.23
2022-10-08T17:58:53.196Z,11.18
2022-10-08T18:01:23.116Z,10.63
2022-10-08T18:03:54.337Z,10.63
2022-10-08T18:06:22.069Z,11.30
2022-10-08T18:08:53.746Z,11.32
2022-10-08T18:11:20.475Z,11.15
2022-10-08T18:13:47.328Z,10.98
2022-10-08T18:16:16.139Z,9.98
2022-10-08T18:18:44.371Z,10.57
2022-10-08T18:21:12.746Z,11.77
2022-10-08T18:23:41.957Z,11.45
2022-10-08T18:26:22.012Z,11.63
2022-10-08T18:28:51.991Z,10.20
2022-10-08T18:31:20.416Z,11.23
2022-10-08T18:33:49.899Z,12.80
2022-10-08T18:36:28.136Z,12.18
2022-10-08T18:39:00.916Z,11.27
2022-10-08T18:41:30.758Z,11.77
2022-10-08T18:44:01.090Z,11.38
2022-10-08T18:46:28.487Z,11.07
2022-10-08T18:48:56.016Z,11.50
2022-10-08T18:51:25.487Z,11.75
2022-10-08T18:53:54.379Z,11.27
2022-10-08T18:56:28.916Z,12.00
2022-10-08T18:59:01.830Z,11.13
2022-10-08T19:01:31.441Z,11.30
2022-10-08T19:04:00.189Z,11.18
2022-10-08T19:06:30.242Z,12.45
2022-10-08T19:08:58.710Z,12.57
2022-10-08T19:11:30.374Z,14.48
2022-10-08T19:13:57.133Z,14.82
2022-10-08T19:16:24.558Z,15.20
2022-10-08T19:18:57.191Z,14.75
2022-10-08T19:21:25.767Z,14.55
2022-10-08T19:23:53.222Z,14.13
2022-10-08T19:26:20.182Z,15.60
2022-10-08T19:28:50.018Z,14.85
2022-10-08T19:31:23.157Z,16.40
2022-10-08T19:33:56.551Z,15.23
2022-10-08T19:36:26.057Z,14.93
2022-10-08T19:38:58.455Z,13.32
2022-10-08T19:41:26.838Z,13.23
2022-10-08T19:43:55.348Z,15.40
2022-10-08T19:46:22.313Z,15.98
2022-10-08T19:48:50.777Z,15.20
2022-10-08T19:51:18.752Z,15.10
2022-10-08T19:53:45.933Z,14.57
2022-10-08T19:56:13.914Z,14.80
2022-10-08T19:58:46.234Z,13.90
2022-10-08T20:01:17.467Z,14.27
2022-10-08T20:03:44.711Z,14.00
2022-10-08T20:06:14.112Z,13.60
2022-10-08T20:08:40.898Z,12.70
2022-10-08T20:11:10.082Z,13.77
2022-10-08T20:13:37.087Z,12.90
2022-10-08T20:16:06.566Z,15.02
2022-10-08T20:18:34.206Z,14.38
2022-10-08T20:21:07.084Z,14.48
2022-10-08T20:23:36.601Z,15.38
2022-10-08T20:26:17.026Z,15.43
2022-10-08T20:28:45.403Z,15.05
2022-10-08T20:31:15.448Z,14.18
2022-10-08T20:33:44.069Z,14.50
2022-10-08T20:36:16.915Z,13.35
2022-10-08T20:38:44.079Z,12.80
2022-10-08T20:41:11.094Z,12.63
2022-10-08T20:43:39.511Z,13.57
2022-10-08T20:46:16.325Z,14.50
2022-10-08T20:48:44.587Z,15.13
2022-10-08T20:51:14.018Z,14.13
2022-10-08T20:53:46.066Z,13.98
2022-10-08T20:56:13.761Z,14.25
2022-10-08T20:58:40.653Z,13.07
2022-10-08T21:01:23.612Z,13.68
2022-10-08T21:03:51.151Z,13.52
2022-10-08T21:06:23.439Z,15.27
2022-10-08T21:08:52.236Z,14.52
2022-10-08T21:11:22.367Z,14.63
2022-10-08T21:13:49.681Z,13.00
2022-10-08T21:16:50.174Z,12.25
2022-10-08T21:19:23.809Z,12.50
2022-10-08T21:21:51.750Z,14.45
2022-10-08T21:24:18.685Z,14.48
2022-10-08T21:26:45.588Z,14.50
2022-10-08T21:29:14.333Z,13.85
2022-10-08T21:31:41.949Z,14.20
2022-10-08T21:34:11.538Z,14.15
2022-10-08T21:36:39.840Z,13.73
2022-10-08T21:39:08.824Z,14.05
2022-10-08T21:41:37.430Z,13.48
2022-10-08T21:44:06.776Z,13.40
2022-10-08T21:46:35.918Z,14.13
2022-10-08T21:49:06.009Z,13.30
2022-10-08T21:51:33.576Z,13.80
2022-10-08T21:54:02.632Z,13.18
2022-10-08T21:56:32.130Z,13.02
2022-10-08T21:59:00.984Z,13.25
2022-10-08T22:01:27.763Z,13.25
2022-10-08T22:03:56.922Z,13.40
2022-10-08T22:06:24.635Z,12.15
2022-10-08T22:08:52.046Z,12.30
2022-10-08T22:11:19.304Z,12.50
2022-10-08T22:13:46.554Z,12.48
2022-10-08T22:16:15.086Z,12.75
2022-10-08T22:18:42.189Z,11.63
2022-10-08T22:21:17.672Z,12.18
2022-10-08T22:23:44.513Z,12.73
2022-10-08T22:26:17.080Z,12.55
2022-10-08T22:28:44.816Z,12.75
2022-10-08T22:31:13.704Z,12.80
2022-10-08T22:33:41.233Z,12.35
2022-10-08T22:36:17.496Z,12.02
2022-10-08T22:38:45.750Z,12.52
2022-10-08T22:41:21.185Z,12.88
2022-10-08T22:43:48.454Z,14.63
2022-10-08T22:46:21.260Z,13.50
2022-10-08T22:48:49.018Z,13.43
2022-10-08T22:51:21.993Z,12.57
2022-10-08T22:53:49.338Z,13.18
2022-10-08T22:56:22.067Z,12.45
2022-10-08T22:58:49.915Z,13.13
2022-10-08T23:01:22.335Z,14.93
2022-10-08T23:03:50.102Z,14.23
2022-10-08T23:06:19.675Z,13.25
2022-10-08T23:08:48.437Z,13.27
2022-10-08T23:11:16.433Z,13.02
2022-10-08T23:13:46.371Z,13.15
2022-10-08T23:16:15.483Z,13.07
2022-10-08T23:18:44.450Z,13.60
2022-10-08T23:21:15.667Z,13.35
2022-10-08T23:23:46.213Z,12.43
2022-10-08T23:26:14.056Z,13.73
2022-10-08T23:28:41.148Z,12.55
2022-10-08T23:31:10.320Z,13.68
2022-10-08T23:33:39.104Z,14.88
2022-10-08T23:36:07.633Z,9.00
2022-10-08T23:38:35.982Z,5.85
2022-10-08T23:41:05.425Z,5.78
2022-10-08T23:43:37.708Z,4.30
2022-10-08T23:46:06.945Z,4.20
2022-10-08T23:48:34.079Z,4.22
2022-10-08T23:51:01.549Z,4.32
2022-10-08T23:53:28.333Z,5.40
2022-10-08T23:55:55.142Z,4.95
2022-10-08T23:58:22.094Z,4.57
